sensor_id;sensor_type;location;lat;lon;timestamp;temperature;humidity
26051;DHT22;13825;53.496;10.020;2023-06-10T00:00:02;14.80;99.90
26051;DHT22;13825;53.496;10.020;2023-06-10T00:02:44;14.80;99.90
26051;DHT22;13825;53.496;10.020;2023-06-10T00:05:42;14.80;99.90
26051;DHT22;13825;53.496;10.020;2023-06-10T02:20:26;13.20;99.90
26051;DHT22;13825;53.496;10.020;2023-06-10T02:23:16;13.20;99.90
26051;DHT22;13825;53.496;10.020;2023-06-10T02:25:50;13.10;99.90
26051;DHT22;13825;53.496;10.020;2023-06-10T02:28:24;13.00;99.90
26051;DHT22;13825;53.496;10.020;2023-06-10T02:31:12;12.90;99.90
26051;DHT22;13825;53.496;10.020;2023-06-10T02:33:59;12.90;99.90
26051;DHT22;13825;53.496;10.020;2023-06-10T02:37:06;12.80;99.90
26051;DHT22;13825;53.496;10.020;2023-06-10T05:36:05;15.50;99.90
26051;DHT22;13825;53.496;10.020;2023-06-10T05:59:49;16.00;99.90
26051;DHT22;13825;53.496;10.020;2023-06-10T06:02:27;16.10;99.90
26051;DHT22;13825;53.496;10.020;2023-06-10T06:05:12;16.20;99.90
26051;DHT22;13825;53.496;10.020;2023-06-10T06:08:05;16.30;99.90
26051;DHT22;13825;53.496;10.020;2023-06-10T06:13:23;16.40;99.90
26051;DHT22;13825;53.496;10.020;2023-06-10T06:19:39;16.60;99.90
26051;DHT22;13825;53.496;10.020;2023-06-10T06:22:19;16.60;99.90
26051;DHT22;13825;53.496;10.020;2023-06-10T06:24:49;16.80;99.90
26051;DHT22;13825;53.496;10.020;2023-06-10T06:27:36;16.90;99.90
26051;DHT22;13825;53.496;10.020;2023-06-10T06:30:10;17.00;99.90
26051;DHT22;13825;53.496;10.020;2023-06-10T06:32:54;17.10;99.90
26051;DHT22;13825;53.496;10.020;2023-06-10T06:35:23;17.10;99.90
26051;DHT22;13825;53.496;10.020;2023-06-10T06:37:53;17.10;99.90
26051;DHT22;13825;53.496;10.020;2023-06-10T06:41:02;17.20;99.90
26051;DHT22;13825;53.496;10.020;2023-06-10T06:43:32;17.30;99.90
26051;DHT22;13825;53.496;10.020;2023-06-10T06:46:29;17.40;99.90
26051;DHT22;13825;53.496;10.020;2023-06-10T06:49:08;17.50;99.90
26051;DHT22;13825;53.496;10.020;2023-06-10T06:52:08;17.60;99.90
26051;DHT22;13825;53.496;10.020;2023-06-10T06:54:56;17.70;99.90
26051;DHT22;13825;53.496;10.020;2023-06-10T06:57:36;17.70;99.90
26051;DHT22;13825;53.496;10.020;2023-06-10T07:00:05;17.90;99.90
26051;DHT22;13825;53.496;10.020;2023-06-10T07:02:36;18.00;99.90
26051;DHT22;13825;53.496;10.020;2023-06-10T07:05:20;18.00;99.90
26051;DHT22;13825;53.496;10.020;2023-06-10T07:08:08;18.00;99.90
26051;DHT22;13825;53.496;10.020;2023-06-10T07:10:38;18.20;99.90
26051;DHT22;13825;53.496;10.020;2023-06-10T07:13:38;18.30;99.90
26051;DHT22;13825;53.496;10.020;2023-06-10T07:16:13;18.00;99.90
26051;DHT22;13825;53.496;10.020;2023-06-10T07:18:41;18.20;99.90
26051;DHT22;13825;53.496;10.020;2023-06-10T07:21:16;18.20;99.90
26051;DHT22;13825;53.496;10.020;2023-06-10T07:30:40;18.50;99.90
26051;DHT22;13825;53.496;10.020;2023-06-10T07:33:22;18.70;99.90
26051;DHT22;13825;53.496;10.020;2023-06-10T07:35:58;18.70;99.90
26051;DHT22;13825;53.496;10.020;2023-06-10T07:38:35;18.70;99.90
26051;DHT22;13825;53.496;10.020;2023-06-10T07:41:19;18.80;99.90
26051;DHT22;13825;53.496;10.020;2023-06-10T07:43:54;19.00;99.90
26051;DHT22;13825;53.496;10.020;2023-06-10T07:46:40;19.10;99.90
26051;DHT22;13825;53.496;10.020;2023-06-10T07:49:09;19.30;99.90
26051;DHT22;13825;53.496;10.020;2023-06-10T07:51:45;19.50;99.90
26051;DHT22;13825;53.496;10.020;2023-06-10T07:54:40;19.60;99.90
26051;DHT22;13825;53.496;10.020;2023-06-10T07:57:18;19.70;99.90
26051;DHT22;13825;53.496;10.020;2023-06-10T07:59:46;19.60;99.90
26051;DHT22;13825;53.496;10.020;2023-06-10T08:02:36;19.70;99.90
26051;DHT22;13825;53.496;10.020;2023-06-10T08:06:02;19.70;99.90
26051;DHT22;13825;53.496;10.020;2023-06-10T08:09:24;19.90;98.80
26051;DHT22;13825;53.496;10.020;2023-06-10T08:14:30;20.00;98.90
26051;DHT22;13825;53.496;10.020;2023-06-10T08:27:30;21.10;86.10
26051;DHT22;13825;53.496;10.020;2023-06-10T08:31:09;21.30;83.30
26051;DHT22;13825;53.496;10.020;2023-06-10T08:39:57;20.90;68.40
26051;DHT22;13825;53.496;10.020;2023-06-10T08:42:28;21.10;75.40
26051;DHT22;13825;53.496;10.020;2023-06-10T08:45:05;21.60;72.00
26051;DHT22;13825;53.496;10.020;2023-06-10T08:50:43;22.00;79.10
26051;DHT22;13825;53.496;10.020;2023-06-10T08:53:33;22.30;62.70
26051;DHT22;13825;53.496;10.020;2023-06-10T08:56:06;22.10;57.80
26051;DHT22;13825;53.496;10.020;2023-06-10T09:01:32;22.40;55.40
26051;DHT22;13825;53.496;10.020;2023-06-10T09:04:16;22.20;62.60
26051;DHT22;13825;53.496;10.020;2023-06-10T09:06:51;22.50;54.80
26051;DHT22;13825;53.496;10.020;2023-06-10T09:12:47;22.80;49.90
26051;DHT22;13825;53.496;10.020;2023-06-10T09:15:48;22.70;56.60
26051;DHT22;13825;53.496;10.020;2023-06-10T09:18:20;23.10;54.80
26051;DHT22;13825;53.496;10.020;2023-06-10T09:26:12;22.90;47.80
26051;DHT22;13825;53.496;10.020;2023-06-10T09:28:50;23.30;59.60
26051;DHT22;13825;53.496;10.020;2023-06-10T09:31:17;23.80;43.50
26051;DHT22;13825;53.496;10.020;2023-06-10T09:33:48;23.90;49.10
26051;DHT22;13825;53.496;10.020;2023-06-10T09:36:21;24.00;41.50
26051;DHT22;13825;53.496;10.020;2023-06-10T09:38:50;24.30;36.90
26051;DHT22;13825;53.496;10.020;2023-06-10T09:41:17;24.20;44.90
26051;DHT22;13825;53.496;10.020;2023-06-10T09:43:51;24.30;37.70
26051;DHT22;13825;53.496;10.020;2023-06-10T10:38:57;26.40;1.00
26051;DHT22;13825;53.496;10.020;2023-06-10T10:41:39;26.70;1.00
26051;DHT22;13825;53.496;10.020;2023-06-10T10:44:09;26.70;1.00
26051;DHT22;13825;53.496;10.020;2023-06-10T10:46:49;26.90;1.00
26051;DHT22;13825;53.496;10.020;2023-06-10T10:49:19;27.00;1.00
26051;DHT22;13825;53.496;10.020;2023-06-10T10:52:14;27.10;8.20
26051;DHT22;13825;53.496;10.020;2023-06-10T10:54:58;27.30;1.00
26051;DHT22;13825;53.496;10.020;2023-06-10T10:57:31;27.50;1.00
26051;DHT22;13825;53.496;10.020;2023-06-10T11:00:13;27.50;1.00
26051;DHT22;13825;53.496;10.020;2023-06-10T11:05:44;27.70;1.00
26051;DHT22;13825;53.496;10.020;2023-06-10T11:08:14;27.30;1.00
26051;DHT22;13825;53.496;10.020;2023-06-10T11:10:54;27.40;1.00
26051;DHT22;13825;53.496;10.020;2023-06-10T12:04:51;28.70;1.00
26051;DHT22;13825;53.496;10.020;2023-06-10T12:07:20;28.90;1.00
26051;DHT22;13825;53.496;10.020;2023-06-10T12:09:59;29.10;1.00
26051;DHT22;13825;53.496;10.020;2023-06-10T12:12:51;29.30;1.00
26051;DHT22;13825;53.496;10.020;2023-06-10T14:17:47;34.80;1.00
26051;DHT22;13825;53.496;10.020;2023-06-10T15:17:35;36.60;1.00
26051;DHT22;13825;53.496;10.020;2023-06-10T15:20:08;36.70;1.00
26051;DHT22;13825;53.496;10.020;2023-06-10T15:31:49;36.20;1.00
26051;DHT22;13825;53.496;10.020;2023-06-10T15:34:44;35.00;1.00
26051;DHT22;13825;53.496;10.020;2023-06-10T15:37:16;35.20;1.00
26051;DHT22;13825;53.496;10.020;2023-06-10T15:39:59;35.50;1.00
26051;DHT22;13825;53.496;10.020;2023-06-10T15:42:35;36.40;1.00
26051;DHT22;13825;53.496;10.020;2023-06-10T15:45:12;36.80;1.00
26051;DHT22;13825;53.496;10.020;2023-06-10T15:47:44;36.90;1.00
26051;DHT22;13825;53.496;10.020;2023-06-10T15:54:43;37.40;1.00
26051;DHT22;13825;53.496;10.020;2023-06-10T15:58:03;38.00;1.00
26051;DHT22;13825;53.496;10.020;2023-06-10T16:00:57;36.60;1.00
26051;DHT22;13825;53.496;10.020;2023-06-10T16:03:42;35.90;1.00
26051;DHT22;13825;53.496;10.020;2023-06-10T16:06:29;36.40;1.00
26051;DHT22;13825;53.496;10.020;2023-06-10T16:27:13;37.30;1.00
26051;DHT22;13825;53.496;10.020;2023-06-10T16:29:40;37.20;1.00
26051;DHT22;13825;53.496;10.020;2023-06-10T16:32:09;36.00;1.00
26051;DHT22;13825;53.496;10.020;2023-06-10T16:34:36;36.00;1.00
26051;DHT22;13825;53.496;10.020;2023-06-10T16:37:03;36.30;1.00
26051;DHT22;13825;53.496;10.020;2023-06-10T16:39:32;36.40;1.00
26051;DHT22;13825;53.496;10.020;2023-06-10T16:42:20;36.10;1.00
26051;DHT22;13825;53.496;10.020;2023-06-10T16:45:13;35.90;1.00
26051;DHT22;13825;53.496;10.020;2023-06-10T16:50:49;36.10;1.00
26051;DHT22;13825;53.496;10.020;2023-06-10T16:53:19;35.70;1.00
26051;DHT22;13825;53.496;10.020;2023-06-10T16:55:46;35.50;1.00
26051;DHT22;13825;53.496;10.020;2023-06-10T16:58:20;36.00;1.00
26051;DHT22;13825;53.496;10.020;2023-06-10T17:00:55;36.40;1.00
26051;DHT22;13825;53.496;10.020;2023-06-10T17:03:34;35.80;1.00
26051;DHT22;13825;53.496;10.020;2023-06-10T17:06:12;35.60;1.00
26051;DHT22;13825;53.496;10.020;2023-06-10T17:08:46;35.90;1.00
26051;DHT22;13825;53.496;10.020;2023-06-10T17:11:16;34.90;1.00
26051;DHT22;13825;53.496;10.020;2023-06-10T17:13:50;35.00;1.00
26051;DHT22;13825;53.496;10.020;2023-06-10T17:16:19;35.50;1.00
26051;DHT22;13825;53.496;10.020;2023-06-10T17:18:48;35.30;1.00
26051;DHT22;13825;53.496;10.020;2023-06-10T17:21:15;34.90;1.00
26051;DHT22;13825;53.496;10.020;2023-06-10T17:23:42;33.70;1.00
26051;DHT22;13825;53.496;10.020;2023-06-10T17:26:11;34.10;1.00
26051;DHT22;13825;53.496;10.020;2023-06-10T17:28:41;34.30;1.00
26051;DHT22;13825;53.496;10.020;2023-06-10T17:31:12;33.90;1.00
26051;DHT22;13825;53.496;10.020;2023-06-10T17:33:50;33.50;1.00
26051;DHT22;13825;53.496;10.020;2023-06-10T17:36:26;33.50;1.00
26051;DHT22;13825;53.496;10.020;2023-06-10T17:38:56;34.20;1.00
26051;DHT22;13825;53.496;10.020;2023-06-10T17:41:25;34.10;1.00
26051;DHT22;13825;53.496;10.020;2023-06-10T17:43:55;34.10;1.00
26051;DHT22;13825;53.496;10.020;2023-06-10T17:47:08;33.60;1.00
26051;DHT22;13825;53.496;10.020;2023-06-10T17:49:40;33.70;1.00
26051;DHT22;13825;53.496;10.020;2023-06-10T17:52:07;33.30;1.00
26051;DHT22;13825;53.496;10.020;2023-06-10T17:54:34;32.90;1.00
26051;DHT22;13825;53.496;10.020;2023-06-10T17:57:24;32.60;1.00
26051;DHT22;13825;53.496;10.020;2023-06-10T17:59:57;32.40;1.00
26051;DHT22;13825;53.496;10.020;2023-06-10T18:02:29;32.30;1.00
26051;DHT22;13825;53.496;10.020;2023-06-10T18:04:56;32.20;1.00
26051;DHT22;13825;53.496;10.020;2023-06-10T18:07:26;32.50;1.00
26051;DHT22;13825;53.496;10.020;2023-06-10T18:09:53;32.40;1.00
26051;DHT22;13825;53.496;10.020;2023-06-10T18:12:20;32.60;1.00
26051;DHT22;13825;53.496;10.020;2023-06-10T18:14:47;32.10;1.00
26051;DHT22;13825;53.496;10.020;2023-06-10T18:17:16;32.20;1.00
26051;DHT22;13825;53.496;10.020;2023-06-10T18:20:15;31.70;1.00
26051;DHT22;13825;53.496;10.020;2023-06-10T18:23:03;31.20;1.00
26051;DHT22;13825;53.496;10.020;2023-06-10T18:25:31;30.70;1.00
26051;DHT22;13825;53.496;10.020;2023-06-10T18:28:05;30.70;1.00
26051;DHT22;13825;53.496;10.020;2023-06-10T18:30:33;30.40;1.00
26051;DHT22;13825;53.496;10.020;2023-06-10T18:33:00;30.10;1.00
26051;DHT22;13825;53.496;10.020;2023-06-10T18:35:29;30.10;1.00
26051;DHT22;13825;53.496;10.020;2023-06-10T18:37:59;29.90;1.00
26051;DHT22;13825;53.496;10.020;2023-06-10T18:40:31;29.80;1.00
26051;DHT22;13825;53.496;10.020;2023-06-10T18:43:01;29.70;1.00
26051;DHT22;13825;53.496;10.020;2023-06-10T18:45:33;29.30;1.00
26051;DHT22;13825;53.496;10.020;2023-06-10T18:48:17;29.50;1.00
26051;DHT22;13825;53.496;10.020;2023-06-10T18:50:48;28.70;1.00
26051;DHT22;13825;53.496;10.020;2023-06-10T18:53:23;27.80;1.00
26051;DHT22;13825;53.496;10.020;2023-06-10T18:55:50;26.80;1.00
26051;DHT22;13825;53.496;10.020;2023-06-10T18:58:17;26.20;1.00
26051;DHT22;13825;53.496;10.020;2023-06-10T19:00:44;25.60;1.00
26051;DHT22;13825;53.496;10.020;2023-06-10T19:03:11;25.30;1.00
26051;DHT22;13825;53.496;10.020;2023-06-10T19:05:38;24.80;1.00
26051;DHT22;13825;53.496;10.020;2023-06-10T19:08:07;24.80;3.90
26051;DHT22;13825;53.496;10.020;2023-06-10T19:10:34;24.50;8.50
26051;DHT22;13825;53.496;10.020;2023-06-10T19:13:04;24.30;17.80
26051;DHT22;13825;53.496;10.020;2023-06-10T19:15:31;24.10;20.90
26051;DHT22;13825;53.496;10.020;2023-06-10T19:18:01;23.80;27.00
26051;DHT22;13825;53.496;10.020;2023-06-10T19:20:30;23.70;30.90
26051;DHT22;13825;53.496;10.020;2023-06-10T19:22:57;23.50;32.60
26051;DHT22;13825;53.496;10.020;2023-06-10T19:25:26;23.40;36.80
26051;DHT22;13825;53.496;10.020;2023-06-10T19:27:53;23.30;41.30
26051;DHT22;13825;53.496;10.020;2023-06-10T19:30:26;23.10;40.50
26051;DHT22;13825;53.496;10.020;2023-06-10T19:32:53;23.10;41.90
26051;DHT22;13825;53.496;10.020;2023-06-10T19:35:20;23.00;41.50
26051;DHT22;13825;53.496;10.020;2023-06-10T19:37:50;23.00;42.30
26051;DHT22;13825;53.496;10.020;2023-06-10T19:40:18;23.00;40.10
26051;DHT22;13825;53.496;10.020;2023-06-10T19:42:48;23.00;40.20
26051;DHT22;13825;53.496;10.020;2023-06-10T22:13:21;19.20;21.30
26051;DHT22;13825;53.496;10.020;2023-06-10T22:15:50;19.20;21.80
26051;DHT22;13825;53.496;10.020;2023-06-10T22:18:17;19.10;18.80
26051;DHT22;13825;53.496;10.020;2023-06-10T22:20:44;19.10;17.70
26051;DHT22;13825;53.496;10.020;2023-06-10T22:23:18;19.00;20.00
26051;DHT22;13825;53.496;10.020;2023-06-10T22:25:48;18.90;15.40
26051;DHT22;13825;53.496;10.020;2023-06-10T22:28:28;18.90;16.50
26051;DHT22;13825;53.496;10.020;2023-06-10T22:30:58;18.80;17.10
26051;DHT22;13825;53.496;10.020;2023-06-10T22:33:27;18.70;19.20
26051;DHT22;13825;53.496;10.020;2023-06-10T22:36:04;18.60;18.50
26051;DHT22;13825;53.496;10.020;2023-06-10T22:38:31;18.60;16.20
26051;DHT22;13825;53.496;10.020;2023-06-10T22:41:01;18.70;17.00
26051;DHT22;13825;53.496;10.020;2023-06-10T22:43:31;18.60;16.90
26051;DHT22;13825;53.496;10.020;2023-06-10T22:45:59;18.50;19.00
26051;DHT22;13825;53.496;10.020;2023-06-10T22:48:28;18.40;19.90
26051;DHT22;13825;53.496;10.020;2023-06-10T22:51:02;18.40;21.60
26051;DHT22;13825;53.496;10.020;2023-06-10T22:53:31;18.30;20.30
26051;DHT22;13825;53.496;10.020;2023-06-10T22:56:01;18.20;21.60
26051;DHT22;13825;53.496;10.020;2023-06-10T22:58:32;18.10;21.00
26051;DHT22;13825;53.496;10.020;2023-06-10T23:01:09;18.20;17.70
26051;DHT22;13825;53.496;10.020;2023-06-10T23:03:45;18.00;17.50
26051;DHT22;13825;53.496;10.020;2023-06-10T23:06:15;18.00;18.00
26051;DHT22;13825;53.496;10.020;2023-06-10T23:08:42;18.00;18.10
26051;DHT22;13825;53.496;10.020;2023-06-10T23:11:11;17.80;19.90
26051;DHT22;13825;53.496;10.020;2023-06-10T23:13:52;17.80;18.90
26051;DHT22;13825;53.496;10.020;2023-06-10T23:16:21;17.80;18.70
26051;DHT22;13825;53.496;10.020;2023-06-10T23:18:52;17.80;15.20
26051;DHT22;13825;53.496;10.020;2023-06-10T23:21:22;17.70;16.90
26051;DHT22;13825;53.496;10.020;2023-06-10T23:23:59;17.70;18.20
26051;DHT22;13825;53.496;10.020;2023-06-10T23:26:31;17.60;18.80
26051;DHT22;13825;53.496;10.020;2023-06-10T23:29:01;17.60;20.00
26051;DHT22;13825;53.496;10.020;2023-06-10T23:31:45;17.40;19.40
26051;DHT22;13825;53.496;10.020;2023-06-10T23:34:22;17.30;21.40
26051;DHT22;13825;53.496;10.020;2023-06-10T23:36:57;17.30;19.70
26051;DHT22;13825;53.496;10.020;2023-06-10T23:39:27;17.20;19.40
26051;DHT22;13825;53.496;10.020;2023-06-10T23:41:58;17.20;22.60
26051;DHT22;13825;53.496;10.020;2023-06-10T23:44:31;17.10;22.20
26051;DHT22;13825;53.496;10.020;2023-06-10T23:47:02;17.00;23.30
26051;DHT22;13825;53.496;10.020;2023-06-10T23:49:36;16.90;22.50
26051;DHT22;13825;53.496;10.020;2023-06-10T23:52:17;16.90;24.10
26051;DHT22;13825;53.496;10.020;2023-06-10T23:54:59;16.80;24.70
26051;DHT22;13825;53.496;10.020;2023-06-10T23:57:36;16.80;26.00
